sensor_id;sensor_type;location;lat;lon;timestamp;pressure;altitude;pressure_sealevel;temperature;humidity
5298;BME280;14738;42.668;23.250;2024-01-07T00:00:30;48596.78;;;-141.90;100.00
5298;BME280;14738;42.668;23.250;2024-01-07T00:02:56;48590.81;;;-141.90;100.00
5298;BME280;14738;42.668;23.250;2024-01-07T00:05:21;48563.03;;;-141.90;100.00
5298;BME280;14738;42.668;23.250;2024-01-07T00:11:08;48594.78;;;-141.90;100.00
5298;BME280;14738;42.668;23.250;2024-01-07T00:13:34;48600.75;;;-141.90;100.00
5298;BME280;14738;42.668;23.250;2024-01-07T00:16:00;48582.88;;;-141.90;100.00
5298;BME280;14738;42.668;23.250;2024-01-07T00:18:25;48576.91;;;-141.90;100.00
5298;BME280;14738;42.668;23.250;2024-01-07T00:20:52;48574.94;;;-141.90;100.00
5298;BME280;14738;42.668;23.250;2024-01-07T00:23:17;48572.94;;;-141.90;100.00
5298;BME280;14738;42.668;23.250;2024-01-07T00:25:43;48584.84;;;-141.90;100.00
5298;BME280;14738;42.668;23.250;2024-01-07T00:28:08;48568.97;;;-141.90;100.00
5298;BME280;14738;42.668;23.250;2024-01-07T00:30:35;48594.78;;;-141.90;100.00
5298;BME280;14738;42.668;23.250;2024-01-07T00:33:00;48608.69;;;-141.90;100.00
5298;BME280;14738;42.668;23.250;2024-01-07T00:35:25;48606.69;;;-141.90;100.00
5298;BME280;14738;42.668;23.250;2024-01-07T00:37:51;48576.91;;;-141.90;100.00
5298;BME280;14738;42.668;23.250;2024-01-07T00:40:16;48592.81;;;-141.90;100.00
5298;BME280;14738;42.668;23.250;2024-01-07T00:42:41;48600.75;;;-141.90;100.00
5298;BME280;14738;42.668;23.250;2024-01-07T00:45:07;48586.84;;;-141.90;100.00
5298;BME280;14738;42.668;23.250;2024-01-07T00:47:34;48574.94;;;-141.90;100.00
5298;BME280;14738;42.668;23.250;2024-01-07T00:49:59;48565.00;;;-141.90;100.00
5298;BME280;14738;42.668;23.250;2024-01-07T00:52:24;48588.84;;;-141.90;100.00
5298;BME280;14738;42.668;23.250;2024-01-07T00:54:50;48594.78;;;-141.90;100.00
5298;BME280;14738;42.668;23.250;2024-01-07T00:57:15;48600.75;;;-141.90;100.00
5298;BME280;14738;42.668;23.250;2024-01-07T00:59:41;48561.03;;;-141.90;100.00
5298;BME280;14738;42.668;23.250;2024-01-07T01:02:06;48584.84;;;-141.90;100.00
5298;BME280;14738;42.668;23.250;2024-01-07T01:04:31;48592.81;;;-141.90;100.00
5298;BME280;14738;42.668;23.250;2024-01-07T01:06:57;48584.84;;;-141.90;100.00
5298;BME280;14738;42.668;23.250;2024-01-07T01:09:22;48592.81;;;-141.90;100.00
5298;BME280;14738;42.668;23.250;2024-01-07T01:11:47;48572.94;;;-141.90;100.00
5298;BME280;14738;42.668;23.250;2024-01-07T01:14:15;48565.00;;;-141.90;100.00
5298;BME280;14738;42.668;23.250;2024-01-07T01:16:40;48574.94;;;-141.90;100.00
5298;BME280;14738;42.668;23.250;2024-01-07T01:19:05;48580.88;;;-141.90;100.00
5298;BME280;14738;42.668;23.250;2024-01-07T01:21:31;48580.88;;;-141.90;100.00
5298;BME280;14738;42.668;23.250;2024-01-07T01:23:56;48594.78;;;-141.90;100.00
5298;BME280;14738;42.668;23.250;2024-01-07T01:26:22;48580.88;;;-141.90;100.00
5298;BME280;14738;42.668;23.250;2024-01-07T01:28:47;48586.84;;;-141.90;100.00
5298;BME280;14738;42.668;23.250;2024-01-07T01:31:13;48588.84;;;-141.90;100.00
5298;BME280;14738;42.668;23.250;2024-01-07T01:33:40;48572.94;;;-141.90;100.00
5298;BME280;14738;42.668;23.250;2024-01-07T01:36:05;48576.91;;;-141.90;100.00
5298;BME280;14738;42.668;23.250;2024-01-07T01:41:52;48592.81;;;-141.90;100.00
5298;BME280;14738;42.668;23.250;2024-01-07T01:44:18;48570.97;;;-141.90;100.00
5298;BME280;14738;42.668;23.250;2024-01-07T01:46:45;48574.94;;;-141.90;100.00
5298;BME280;14738;42.668;23.250;2024-01-07T01:49:11;48565.00;;;-141.90;100.00
5298;BME280;14738;42.668;23.250;2024-01-07T01:51:37;48604.72;;;-141.90;100.00
5298;BME280;14738;42.668;23.250;2024-01-07T01:54:02;48565.00;;;-141.90;100.00
5298;BME280;14738;42.668;23.250;2024-01-07T01:56:28;48576.91;;;-141.90;100.00
5298;BME280;14738;42.668;23.250;2024-01-07T01:58:55;48586.84;;;-141.90;100.00
5298;BME280;14738;42.668;23.250;2024-01-07T02:01:22;48580.88;;;-141.90;100.00
5298;BME280;14738;42.668;23.250;2024-01-07T02:03:48;48580.88;;;-141.90;100.00
5298;BME280;14738;42.668;23.250;2024-01-07T02:06:13;48590.81;;;-141.90;100.00
5298;BME280;14738;42.668;23.250;2024-01-07T02:08:40;48584.84;;;-141.90;100.00
5298;BME280;14738;42.668;23.250;2024-01-07T02:11:18;48594.78;;;-141.90;100.00
5298;BME280;14738;42.668;23.250;2024-01-07T02:16:54;48580.88;;;-141.90;100.00
5298;BME280;14738;42.668;23.250;2024-01-07T02:19:20;48580.88;;;-141.90;100.00
5298;BME280;14738;42.668;23.250;2024-01-07T02:21:46;48584.84;;;-141.90;100.00
5298;BME280;14738;42.668;23.250;2024-01-07T02:24:15;48549.13;;;-141.90;100.00
5298;BME280;14738;42.668;23.250;2024-01-07T02:26:41;48572.94;;;-141.90;100.00
5298;BME280;14738;42.668;23.250;2024-01-07T02:29:06;48570.97;;;-141.90;100.00
5298;BME280;14738;42.668;23.250;2024-01-07T02:31:31;48578.91;;;-141.90;100.00
5298;BME280;14738;42.668;23.250;2024-01-07T02:33:57;48572.94;;;-141.90;100.00
5298;BME280;14738;42.668;23.250;2024-01-07T02:36:22;48590.81;;;-141.90;100.00
5298;BME280;14738;42.668;23.250;2024-01-07T02:38:47;48584.84;;;-141.90;100.00
5298;BME280;14738;42.668;23.250;2024-01-07T02:41:13;48567.00;;;-141.90;100.00
5298;BME280;14738;42.668;23.250;2024-01-07T02:43:38;48582.88;;;-141.90;100.00
5298;BME280;14738;42.668;23.250;2024-01-07T02:46:03;48580.88;;;-141.90;100.00
5298;BME280;14738;42.668;23.250;2024-01-07T02:48:29;48580.88;;;-141.90;100.00
5298;BME280;14738;42.668;23.250;2024-01-07T02:50:55;48582.88;;;-141.90;100.00
5298;BME280;14738;42.668;23.250;2024-01-07T02:55:52;48574.94;;;-141.90;100.00
5298;BME280;14738;42.668;23.250;2024-01-07T02:58:17;48584.84;;;-141.90;100.00
5298;BME280;14738;42.668;23.250;2024-01-07T03:00:42;48584.84;;;-141.90;100.00
5298;BME280;14738;42.668;23.250;2024-01-07T03:03:08;48549.13;;;-141.90;100.00
5298;BME280;14738;42.668;23.250;2024-01-07T03:05:33;48561.03;;;-141.90;100.00
5298;BME280;14738;42.668;23.250;2024-01-07T03:07:59;48549.13;;;-141.90;100.00
5298;BME280;14738;42.668;23.250;2024-01-07T03:10:25;48570.97;;;-141.90;100.00
5298;BME280;14738;42.668;23.250;2024-01-07T03:12:51;48568.97;;;-141.90;100.00
5298;BME280;14738;42.668;23.250;2024-01-07T03:15:16;48561.03;;;-141.90;100.00
5298;BME280;14738;42.668;23.250;2024-01-07T03:17:41;48568.97;;;-141.90;100.00
5298;BME280;14738;42.668;23.250;2024-01-07T03:20:08;48561.03;;;-141.90;100.00
5298;BME280;14738;42.668;23.250;2024-01-07T03:22:33;48539.19;;;-141.90;100.00
5298;BME280;14738;42.668;23.250;2024-01-07T03:24:59;48551.09;;;-141.90;100.00
5298;BME280;14738;42.668;23.250;2024-01-07T03:27:24;48527.28;;;-141.90;100.00
5298;BME280;14738;42.668;23.250;2024-01-07T03:29:50;48553.09;;;-141.90;100.00
5298;BME280;14738;42.668;23.250;2024-01-07T03:32:15;48535.22;;;-141.90;100.00
5298;BME280;14738;42.668;23.250;2024-01-07T03:34:40;48525.31;;;-141.90;100.00
5298;BME280;14738;42.668;23.250;2024-01-07T03:37:06;48541.19;;;-141.90;100.00
5298;BME280;14738;42.668;23.250;2024-01-07T03:39:34;48509.41;;;-141.90;100.00
5298;BME280;14738;42.668;23.250;2024-01-07T03:41:59;48521.34;;;-141.90;100.00
5298;BME280;14738;42.668;23.250;2024-01-07T03:44:25;48553.09;;;-141.90;100.00
5298;BME280;14738;42.668;23.250;2024-01-07T03:46:50;48555.09;;;-141.90;100.00
5298;BME280;14738;42.668;23.250;2024-01-07T03:49:16;48557.06;;;-141.90;100.00
5298;BME280;14738;42.668;23.250;2024-01-07T03:51:43;48549.13;;;-141.90;100.00
5298;BME280;14738;42.668;23.250;2024-01-07T03:54:08;48547.13;;;-141.90;100.00
5298;BME280;14738;42.668;23.250;2024-01-07T03:56:34;48545.16;;;-141.90;100.00
5298;BME280;14738;42.668;23.250;2024-01-07T03:58:59;48557.06;;;-141.90;100.00
5298;BME280;14738;42.668;23.250;2024-01-07T04:01:24;48561.03;;;-141.90;100.00
5298;BME280;14738;42.668;23.250;2024-01-07T04:03:50;48529.28;;;-141.90;100.00
5298;BME280;14738;42.668;23.250;2024-01-07T04:06:15;48539.19;;;-141.90;100.00
5298;BME280;14738;42.668;23.250;2024-01-07T04:08:41;48580.88;;;-141.90;100.00
5298;BME280;14738;42.668;23.250;2024-01-07T04:11:06;48533.25;;;-141.90;100.00
5298;BME280;14738;42.668;23.250;2024-01-07T04:13:32;48521.34;;;-141.90;100.00
5298;BME280;14738;42.668;23.250;2024-01-07T04:15:57;48545.16;;;-141.90;100.00
5298;BME280;14738;42.668;23.250;2024-01-07T04:18:22;48547.13;;;-141.90;100.00
5298;BME280;14738;42.668;23.250;2024-01-07T04:20:48;48568.97;;;-141.90;100.00
5298;BME280;14738;42.668;23.250;2024-01-07T04:26:35;48549.13;;;-141.90;100.00
5298;BME280;14738;42.668;23.250;2024-01-07T04:29:00;48541.19;;;-141.90;100.00
5298;BME280;14738;42.668;23.250;2024-01-07T04:31:25;48557.06;;;-141.90;100.00
5298;BME280;14738;42.668;23.250;2024-01-07T04:33:51;48545.16;;;-141.90;100.00
5298;BME280;14738;42.668;23.250;2024-01-07T04:44:32;48527.28;;;-141.90;100.00
5298;BME280;14738;42.668;23.250;2024-01-07T04:46:58;48543.16;;;-141.90;100.00
5298;BME280;14738;42.668;23.250;2024-01-07T04:49:23;48533.25;;;-141.90;100.00
5298;BME280;14738;42.668;23.250;2024-01-07T04:51:49;48553.09;;;-141.90;100.00
5298;BME280;14738;42.668;23.250;2024-01-07T04:54:14;48543.16;;;-141.90;100.00
5298;BME280;14738;42.668;23.250;2024-01-07T04:56:39;48549.13;;;-141.90;100.00
5298;BME280;14738;42.668;23.250;2024-01-07T04:59:05;48563.03;;;-141.90;100.00
5298;BME280;14738;42.668;23.250;2024-01-07T05:01:32;48553.09;;;-141.90;100.00
5298;BME280;14738;42.668;23.250;2024-01-07T05:03:58;48580.88;;;-141.90;100.00
5298;BME280;14738;42.668;23.250;2024-01-07T05:06:23;48565.00;;;-141.90;100.00
5298;BME280;14738;42.668;23.250;2024-01-07T05:08:48;48541.19;;;-141.90;100.00
5298;BME280;14738;42.668;23.250;2024-01-07T05:11:14;48529.28;;;-141.90;100.00
5298;BME280;14738;42.668;23.250;2024-01-07T05:13:39;48545.16;;;-141.90;100.00
5298;BME280;14738;42.668;23.250;2024-01-07T05:16:05;48537.22;;;-141.90;100.00
5298;BME280;14738;42.668;23.250;2024-01-07T05:18:30;48517.34;;;-141.90;100.00
5298;BME280;14738;42.668;23.250;2024-01-07T05:20:56;48543.16;;;-141.90;100.00
5298;BME280;14738;42.668;23.250;2024-01-07T05:23:21;48545.16;;;-141.90;100.00
5298;BME280;14738;42.668;23.250;2024-01-07T05:25:47;48553.09;;;-141.90;100.00
5298;BME280;14738;42.668;23.250;2024-01-07T05:28:13;48537.22;;;-141.90;100.00
5298;BME280;14738;42.668;23.250;2024-01-07T05:30:39;48545.16;;;-141.90;100.00
5298;BME280;14738;42.668;23.250;2024-01-07T05:33:04;48561.03;;;-141.90;100.00
5298;BME280;14738;42.668;23.250;2024-01-07T05:35:30;48567.00;;;-141.90;100.00
5298;BME280;14738;42.668;23.250;2024-01-07T05:37:55;48565.00;;;-141.90;100.00
5298;BME280;14738;42.668;23.250;2024-01-07T05:40:21;48547.13;;;-141.90;100.00
5298;BME280;14738;42.668;23.250;2024-01-07T05:42:46;48513.38;;;-141.90;100.00
5298;BME280;14738;42.668;23.250;2024-01-07T05:45:12;48545.16;;;-141.90;100.00
5298;BME280;14738;42.668;23.250;2024-01-07T05:47:37;48559.06;;;-141.90;100.00
5298;BME280;14738;42.668;23.250;2024-01-07T05:50:03;48555.09;;;-141.90;100.00
5298;BME280;14738;42.668;23.250;2024-01-07T05:52:28;48547.13;;;-141.90;100.00
5298;BME280;14738;42.668;23.250;2024-01-07T05:54:54;48537.22;;;-141.90;100.00
5298;BME280;14738;42.668;23.250;2024-01-07T05:57:19;48563.03;;;-141.90;100.00
5298;BME280;14738;42.668;23.250;2024-01-07T05:59:45;48493.53;;;-141.90;100.00
5298;BME280;14738;42.668;23.250;2024-01-07T06:02:11;48553.09;;;-141.90;100.00
5298;BME280;14738;42.668;23.250;2024-01-07T06:04:38;48549.13;;;-141.90;100.00
5298;BME280;14738;42.668;23.250;2024-01-07T06:07:04;48557.06;;;-141.90;100.00
5298;BME280;14738;42.668;23.250;2024-01-07T06:09:29;48572.94;;;-141.90;100.00
5298;BME280;14738;42.668;23.250;2024-01-07T06:11:55;48553.09;;;-141.90;100.00
5298;BME280;14738;42.668;23.250;2024-01-07T06:14:22;48531.25;;;-141.90;100.00
5298;BME280;14738;42.668;23.250;2024-01-07T06:16:47;48545.16;;;-141.90;100.00
5298;BME280;14738;42.668;23.250;2024-01-07T06:19:12;48549.13;;;-141.90;100.00
5298;BME280;14738;42.668;23.250;2024-01-07T06:21:40;48537.22;;;-141.90;100.00
5298;BME280;14738;42.668;23.250;2024-01-07T06:24:07;48563.03;;;-141.90;100.00
5298;BME280;14738;42.668;23.250;2024-01-07T06:26:33;48572.94;;;-141.90;100.00
5298;BME280;14738;42.668;23.250;2024-01-07T06:31:55;48559.06;;;-141.90;100.00
5298;BME280;14738;42.668;23.250;2024-01-07T06:34:20;48549.13;;;-141.90;100.00
5298;BME280;14738;42.668;23.250;2024-01-07T06:36:46;48517.34;;;-141.90;100.00
5298;BME280;14738;42.668;23.250;2024-01-07T06:39:12;48539.19;;;-141.90;100.00
5298;BME280;14738;42.668;23.250;2024-01-07T06:41:37;48572.94;;;-141.90;100.00
5298;BME280;14738;42.668;23.250;2024-01-07T06:44:03;48582.88;;;-141.90;100.00
5298;BME280;14738;42.668;23.250;2024-01-07T06:46:29;48572.94;;;-141.90;100.00
5298;BME280;14738;42.668;23.250;2024-01-07T06:48:54;48568.97;;;-141.90;100.00
5298;BME280;14738;42.668;23.250;2024-01-07T06:51:20;48568.97;;;-141.90;100.00
5298;BME280;14738;42.668;23.250;2024-01-07T06:53:45;48553.09;;;-141.90;100.00
5298;BME280;14738;42.668;23.250;2024-01-07T06:56:10;48543.16;;;-141.90;100.00
5298;BME280;14738;42.668;23.250;2024-01-07T06:58:36;48549.13;;;-141.90;100.00
5298;BME280;14738;42.668;23.250;2024-01-07T07:01:01;48529.28;;;-141.90;100.00
5298;BME280;14738;42.668;23.250;2024-01-07T07:03:28;48555.09;;;-141.90;100.00
5298;BME280;14738;42.668;23.250;2024-01-07T07:05:53;48559.06;;;-141.90;100.00
5298;BME280;14738;42.668;23.250;2024-01-07T07:08:18;48555.09;;;-141.90;100.00
5298;BME280;14738;42.668;23.250;2024-01-07T07:10:44;48545.16;;;-141.90;100.00
5298;BME280;14738;42.668;23.250;2024-01-07T07:13:11;48537.22;;;-141.90;100.00
5298;BME280;14738;42.668;23.250;2024-01-07T07:15:37;48535.22;;;-141.90;100.00
5298;BME280;14738;42.668;23.250;2024-01-07T07:18:03;48533.25;;;-141.90;100.00
5298;BME280;14738;42.668;23.250;2024-01-07T07:20:28;48574.94;;;-141.90;100.00
5298;BME280;14738;42.668;23.250;2024-01-07T07:22:53;48537.22;;;-141.90;100.00
5298;BME280;14738;42.668;23.250;2024-01-07T07:25:19;48545.16;;;-141.90;100.00
5298;BME280;14738;42.668;23.250;2024-01-07T07:27:44;48535.22;;;-141.90;100.00
5298;BME280;14738;42.668;23.250;2024-01-07T07:30:10;48545.16;;;-141.90;100.00
5298;BME280;14738;42.668;23.250;2024-01-07T07:32:35;48515.38;;;-141.90;100.00
5298;BME280;14738;42.668;23.250;2024-01-07T07:35:01;48533.25;;;-141.90;100.00
5298;BME280;14738;42.668;23.250;2024-01-07T07:37:26;48561.03;;;-141.90;100.00
5298;BME280;14738;42.668;23.250;2024-01-07T07:39:51;48541.19;;;-141.90;100.00
5298;BME280;14738;42.668;23.250;2024-01-07T07:42:17;48561.03;;;-141.90;100.00
5298;BME280;14738;42.668;23.250;2024-01-07T07:44:42;48561.03;;;-141.90;100.00
5298;BME280;14738;42.668;23.250;2024-01-07T07:47:08;48543.16;;;-141.90;100.00
5298;BME280;14738;42.668;23.250;2024-01-07T07:49:36;48521.34;;;-141.90;100.00
5298;BME280;14738;42.668;23.250;2024-01-07T07:52:02;48497.50;;;-141.90;100.00
5298;BME280;14738;42.668;23.250;2024-01-07T07:54:31;48529.28;;;-141.90;100.00
5298;BME280;14738;42.668;23.250;2024-01-07T07:56:56;48531.25;;;-141.90;100.00
5298;BME280;14738;42.668;23.250;2024-01-07T07:59:21;48529.28;;;-141.90;100.00
5298;BME280;14738;42.668;23.250;2024-01-07T08:01:47;48529.28;;;-141.90;100.00
5298;BME280;14738;42.668;23.250;2024-01-07T08:04:12;48519.34;;;-141.90;100.00
5298;BME280;14738;42.668;23.250;2024-01-07T08:06:37;48531.25;;;-141.90;100.00
5298;BME280;14738;42.668;23.250;2024-01-07T08:09:05;48511.41;;;-141.90;100.00
5298;BME280;14738;42.668;23.250;2024-01-07T08:11:30;48525.31;;;-141.90;100.00
5298;BME280;14738;42.668;23.250;2024-01-07T08:13:56;48531.25;;;-141.90;100.00
5298;BME280;14738;42.668;23.250;2024-01-07T08:16:22;48521.34;;;-141.90;100.00
5298;BME280;14738;42.668;23.250;2024-01-07T08:18:48;48519.34;;;-141.90;100.00
5298;BME280;14738;42.668;23.250;2024-01-07T08:21:13;48527.28;;;-141.90;100.00
5298;BME280;14738;42.668;23.250;2024-01-07T08:23:39;48517.34;;;-141.90;100.00
5298;BME280;14738;42.668;23.250;2024-01-07T08:26:04;48527.28;;;-141.90;100.00
5298;BME280;14738;42.668;23.250;2024-01-07T08:28:29;48545.16;;;-141.90;100.00
5298;BME280;14738;42.668;23.250;2024-01-07T08:30:55;48529.28;;;-141.90;100.00
5298;BME280;14738;42.668;23.250;2024-01-07T08:33:21;48519.34;;;-141.90;100.00
5298;BME280;14738;42.668;23.250;2024-01-07T08:35:46;48513.38;;;-141.90;100.00
5298;BME280;14738;42.668;23.250;2024-01-07T08:38:12;48507.44;;;-141.90;100.00
5298;BME280;14738;42.668;23.250;2024-01-07T08:40:37;48525.31;;;-141.90;100.00
5298;BME280;14738;42.668;23.250;2024-01-07T08:43:03;48493.53;;;-141.90;100.00
5298;BME280;14738;42.668;23.250;2024-01-07T08:45:28;48511.41;;;-141.90;100.00
5298;BME280;14738;42.668;23.250;2024-01-07T08:47:54;48529.28;;;-141.90;100.00
5298;BME280;14738;42.668;23.250;2024-01-07T08:50:19;48527.28;;;-141.90;100.00
5298;BME280;14738;42.668;23.250;2024-01-07T08:52:45;48493.53;;;-141.90;100.00
5298;BME280;14738;42.668;23.250;2024-01-07T08:55:11;48543.16;;;-141.90;100.00
5298;BME280;14738;42.668;23.250;2024-01-07T08:57:37;48519.34;;;-141.90;100.00
5298;BME280;14738;42.668;23.250;2024-01-07T09:00:04;48521.34;;;-141.90;100.00
5298;BME280;14738;42.668;23.250;2024-01-07T09:02:30;48521.34;;;-141.90;100.00
5298;BME280;14738;42.668;23.250;2024-01-07T09:04:55;48503.47;;;-141.90;100.00
5298;BME280;14738;42.668;23.250;2024-01-07T09:07:23;48517.34;;;-141.90;100.00
5298;BME280;14738;42.668;23.250;2024-01-07T09:09:48;48529.28;;;-141.90;100.00
5298;BME280;14738;42.668;23.250;2024-01-07T09:12:13;48517.34;;;-141.90;100.00
5298;BME280;14738;42.668;23.250;2024-01-07T09:14:39;48509.41;;;-141.90;100.00
5298;BME280;14738;42.668;23.250;2024-01-07T09:17:05;48511.41;;;-141.90;100.00
5298;BME280;14738;42.668;23.250;2024-01-07T09:19:31;48521.34;;;-141.90;100.00
5298;BME280;14738;42.668;23.250;2024-01-07T09:21:56;48513.38;;;-141.90;100.00
5298;BME280;14738;42.668;23.250;2024-01-07T09:24:22;48515.38;;;-141.90;100.00
5298;BME280;14738;42.668;23.250;2024-01-07T09:26:47;48477.66;;;-141.90;100.00
5298;BME280;14738;42.668;23.250;2024-01-07T09:29:12;48491.56;;;-141.90;100.00
5298;BME280;14738;42.668;23.250;2024-01-07T09:31:39;48529.28;;;-141.90;100.00
5298;BME280;14738;42.668;23.250;2024-01-07T09:34:05;48491.56;;;-141.90;100.00
5298;BME280;14738;42.668;23.250;2024-01-07T09:36:32;48491.56;;;-141.90;100.00
5298;BME280;14738;42.668;23.250;2024-01-07T09:39:12;48503.47;;;-141.90;100.00
5298;BME280;14738;42.668;23.250;2024-01-07T09:41:38;48517.34;;;-141.90;100.00
5298;BME280;14738;42.668;23.250;2024-01-07T09:44:04;48483.59;;;-141.90;100.00
5298;BME280;14738;42.668;23.250;2024-01-07T09:46:32;48511.41;;;-141.90;100.00
5298;BME280;14738;42.668;23.250;2024-01-07T09:48:59;48493.53;;;-141.90;100.00
5298;BME280;14738;42.668;23.250;2024-01-07T09:51:26;48491.56;;;-141.90;100.00
5298;BME280;14738;42.668;23.250;2024-01-07T09:57:08;48493.53;;;-141.90;100.00
5298;BME280;14738;42.668;23.250;2024-01-07T09:59:35;48509.41;;;-141.90;100.00
5298;BME280;14738;42.668;23.250;2024-01-07T10:02:02;48519.34;;;-141.90;100.00
5298;BME280;14738;42.668;23.250;2024-01-07T10:04:27;48481.63;;;-141.90;100.00
5298;BME280;14738;42.668;23.250;2024-01-07T10:06:53;48527.28;;;-141.90;100.00
5298;BME280;14738;42.668;23.250;2024-01-07T10:09:21;48513.38;;;-141.90;100.00
5298;BME280;14738;42.668;23.250;2024-01-07T10:11:49;48463.75;;;-141.90;100.00
5298;BME280;14738;42.668;23.250;2024-01-07T10:14:14;48501.47;;;-141.90;100.00
5298;BME280;14738;42.668;23.250;2024-01-07T10:16:40;48477.66;;;-141.90;100.00
5298;BME280;14738;42.668;23.250;2024-01-07T10:19:05;48529.28;;;-141.90;100.00
5298;BME280;14738;42.668;23.250;2024-01-07T10:21:33;48497.50;;;-141.90;100.00
5298;BME280;14738;42.668;23.250;2024-01-07T10:24:10;48489.56;;;-141.90;100.00
5298;BME280;14738;42.668;23.250;2024-01-07T10:26:40;48477.66;;;-141.90;46.77
5298;BME280;14738;42.668;23.250;2024-01-07T10:29:06;48511.41;;;-141.90;47.78
5298;BME280;14738;42.668;23.250;2024-01-07T10:31:33;48491.56;;;-141.90;47.21
5298;BME280;14738;42.668;23.250;2024-01-07T10:33:59;48481.63;;;-141.90;46.84
5298;BME280;14738;42.668;23.250;2024-01-07T10:36:24;48481.63;;;-141.90;46.87
5298;BME280;14738;42.668;23.250;2024-01-07T10:38:50;48479.63;;;-141.90;45.68
5298;BME280;14738;42.668;23.250;2024-01-07T10:41:19;48491.56;;;-141.90;47.10
5298;BME280;14738;42.668;23.250;2024-01-07T10:43:47;48483.59;;;-141.90;46.23
5298;BME280;14738;42.668;23.250;2024-01-07T10:46:14;48463.75;;;-141.90;46.13
5298;BME280;14738;42.668;23.250;2024-01-07T10:48:51;48497.50;;;-141.90;46.70
5298;BME280;14738;42.668;23.250;2024-01-07T10:51:20;48493.53;;;-141.90;46.73
5298;BME280;14738;42.668;23.250;2024-01-07T10:53:51;48511.41;;;-141.90;47.36
5298;BME280;14738;42.668;23.250;2024-01-07T10:56:23;48529.28;;;-141.90;47.43
5298;BME280;14738;42.668;23.250;2024-01-07T10:58:51;48493.53;;;-141.90;47.73
5298;BME280;14738;42.668;23.250;2024-01-07T11:01:17;48509.41;;;-141.90;47.63
5298;BME280;14738;42.668;23.250;2024-01-07T11:06:22;48513.38;;;-141.90;46.83
5298;BME280;14738;42.668;23.250;2024-01-07T11:11:50;48501.47;;;-141.90;46.05
5298;BME280;14738;42.668;23.250;2024-01-07T11:14:38;48499.50;;;-141.90;46.75
5298;BME280;14738;42.668;23.250;2024-01-07T11:17:07;48481.63;;;-141.90;45.55
5298;BME280;14738;42.668;23.250;2024-01-07T11:19:35;48475.66;;;-141.90;47.17
5298;BME280;14738;42.668;23.250;2024-01-07T11:22:26;48509.41;;;-141.90;46.65
5298;BME280;14738;42.668;23.250;2024-01-07T11:24:59;48465.75;;;-141.90;46.81
5298;BME280;14738;42.668;23.250;2024-01-07T11:27:26;48509.41;;;-141.90;45.43
5298;BME280;14738;42.668;23.250;2024-01-07T11:29:57;48485.59;;;-141.90;46.15
5298;BME280;14738;42.668;23.250;2024-01-07T11:32:44;48463.75;;;-141.90;46.22
5298;BME280;14738;42.668;23.250;2024-01-07T11:35:12;48469.72;;;-141.90;45.71
5298;BME280;14738;42.668;23.250;2024-01-07T11:37:38;48495.53;;;-141.90;46.00
5298;BME280;14738;42.668;23.250;2024-01-07T11:40:05;48495.53;;;-141.90;48.27
5298;BME280;14738;42.668;23.250;2024-01-07T11:42:31;48491.56;;;-141.90;49.56
5298;BME280;14738;42.668;23.250;2024-01-07T11:44:57;48485.59;;;-141.90;49.43
5298;BME280;14738;42.668;23.250;2024-01-07T11:47:23;48517.34;;;-141.90;49.56
5298;BME280;14738;42.668;23.250;2024-01-07T11:49:49;48491.56;;;-141.90;49.20
5298;BME280;14738;42.668;23.250;2024-01-07T11:52:15;48517.34;;;-141.90;49.27
5298;BME280;14738;42.668;23.250;2024-01-07T11:54:40;48485.59;;;-141.90;49.88
5298;BME280;14738;42.668;23.250;2024-01-07T11:57:07;48511.41;;;-141.90;48.21
5298;BME280;14738;42.668;23.250;2024-01-07T11:59:36;48489.56;;;-141.90;49.21
5298;BME280;14738;42.668;23.250;2024-01-07T12:02:04;48489.56;;;-141.90;49.70
5298;BME280;14738;42.668;23.250;2024-01-07T12:04:30;48521.34;;;-141.90;49.08
5298;BME280;14738;42.668;23.250;2024-01-07T12:06:56;48481.63;;;-141.90;49.78
5298;BME280;14738;42.668;23.250;2024-01-07T12:09:21;48509.41;;;-141.90;51.60
5298;BME280;14738;42.668;23.250;2024-01-07T12:11:47;48457.81;;;-141.90;52.62
5298;BME280;14738;42.668;23.250;2024-01-07T12:14:13;48489.56;;;-141.90;53.17
5298;BME280;14738;42.668;23.250;2024-01-07T12:16:39;48481.63;;;-141.90;53.69
5298;BME280;14738;42.668;23.250;2024-01-07T12:19:05;48477.66;;;-141.90;54.17
5298;BME280;14738;42.668;23.250;2024-01-07T12:21:30;48477.66;;;-141.90;54.08
5298;BME280;14738;42.668;23.250;2024-01-07T12:23:56;48481.63;;;-141.90;53.48
5298;BME280;14738;42.668;23.250;2024-01-07T12:26:26;48457.81;;;-141.90;54.05
5298;BME280;14738;42.668;23.250;2024-01-07T12:28:53;48479.63;;;-141.90;53.42
5298;BME280;14738;42.668;23.250;2024-01-07T12:31:20;48493.53;;;-141.90;53.86
5298;BME280;14738;42.668;23.250;2024-01-07T12:33:46;48481.63;;;-141.90;54.46
5298;BME280;14738;42.668;23.250;2024-01-07T12:36:12;48485.59;;;-141.90;55.06
5298;BME280;14738;42.668;23.250;2024-01-07T12:38:37;48447.88;;;-141.90;55.04
5298;BME280;14738;42.668;23.250;2024-01-07T12:41:03;48501.47;;;-141.90;54.22
5298;BME280;14738;42.668;23.250;2024-01-07T12:43:29;48513.38;;;-141.90;54.19
5298;BME280;14738;42.668;23.250;2024-01-07T12:45:54;48499.50;;;-141.90;53.47
5298;BME280;14738;42.668;23.250;2024-01-07T12:48:22;48499.50;;;-141.90;53.45
5298;BME280;14738;42.668;23.250;2024-01-07T12:50:47;48483.59;;;-141.90;53.48
5298;BME280;14738;42.668;23.250;2024-01-07T12:53:13;48493.53;;;-141.90;54.21
5298;BME280;14738;42.668;23.250;2024-01-07T12:55:38;48493.53;;;-141.90;54.43
5298;BME280;14738;42.668;23.250;2024-01-07T13:00:28;48493.53;;;-141.90;54.52
5298;BME280;14738;42.668;23.250;2024-01-07T13:02:55;48499.50;;;-141.90;54.38
5298;BME280;14738;42.668;23.250;2024-01-07T13:05:21;48493.53;;;-141.90;55.05